AirNav   Everest Fuels
 
 446 users online  

FL71 Pennington Heliport
DeFuniak Springs, Florida, USA

GOING TO DEFUNIAK SPRINGS?


FAA INFORMATION EFFECTIVE 07 NOVEMBER 2019

Location

FAA Identifier: FL71
Lat/Long: 30-22-24.0700N 086-10-44.6200W
30-22.401167N 086-10.743667W
30.3733528,-86.1790611
(estimated)
Elevation: 40 ft. / 12 m (estimated)
Variation: 02W (2000)
From city: 25 miles N of DE FUNIAK SPRINGS, FL
Time zone: UTC -6 (UTC -5 during Daylight Saving Time)
Zip code: 32459

Heliport Operations

Heliport use: Private use. Permission required prior to landing
Activation date: 02/2001
Control tower: no
ARTCC: JACKSONVILLE CENTER
FSS: GAINESVILLE FLIGHT SERVICE STATION
Attendance: CONTINUOUS
Wind indicator: yes
Segmented circle: no

Heliport Communications

WX ASOS at DTS (15 nm W): PHONE 850-654-7128
WX ASOS at ECP (20 nm E): 119.975 (850-235-7857)

Nearby radio navigation aids

VOR radial/distance  VOR name  Freq  Var
CEWr133/37.5CRESTVIEW VORTAC115.9003E

 
NDB name  Hdg/Dist  Freq  Var  ID
LYNNE282/20.727804WPFN .--. ..-. -.

Heliport Services

Runway Information

Helipad H1

Dimensions: 100 x 100 ft. / 30 x 30 m
Surface: concrete
Latitude: 30-22.401167N
Longitude: 086-10.743667W
Elevation: 40.0 ft.
Traffic pattern: leftleft

Heliport Ownership and Management from official FAA records

Ownership: Privately-owned
Owner: WALTON COUNTY SHERIFF'S OFFICE
752 TRIPLE G RD
DE FUNIAK SPRINGS, FL 32433
Phone 850-892-8186
Manager: WILEY WILLOUGHBY
25221 HWY 331 SOUTH
SANTA ROSA BEACH, FL 32459
Phone 850-892-8111

Heliport Operational Statistics

Aircraft based on the field: 1
Helicopters: 1
    

Additional Remarks

FOR CD CTC TYNDALL APCH AT 850-283-2900 OR 850-283-3353, WHEN APCH CLSD CTC JACKSONVILLE ARTCC AT 904-845-1592.

Instrument Procedures

There are no published instrument procedures at FL71.

Some nearby airports with instrument procedures:

KDTS - Destin Executive Airport (15 nm W)
KVPS - Eglin Air Force Base/Destin-Fort Walton Beach Airport (19 nm W)
KECP - Northwest Florida Beaches International Airport (20 nm E)
54J - DeFuniak Springs Airport (22 nm N)
KEGI - Duke Field (Eglin AF Aux Nr 3) Airport (24 nm NW)
 
Loc | Ops | Rwys | IFR | FBO | Links
Com | Nav | Svcs | Stats | Notes
Area around FL71 (Pennington Heliport)
 
Road maps at: MapQuest Bing Google
 
Aerial photo
No photo
 
Sectional chart

 
Airport distance calculator
Flying to Pennington Heliport? Find the distance to fly.

From to FL71

Sunrise and sunset
Times for 19-Nov-2019
 Local
(UTC-6)
 Zulu
(UTC)
Morning civil twilight05:4911:49
Sunrise06:1512:15
Sunset16:4522:45
Evening civil twilight17:1123:11

Current date and time
Zulu (UTC)  19-Nov-2019 08:51:05
Local (UTC-6)  19-Nov-2019 02:51:05
 
METAR
KDTS 
15nm W 
190753Z AUTO 00000KT 10SM CLR 08/06 A2990 RMK AO2 SLP124 T00830061
KVPS 
18nm W 
190756Z AUTO 32006KT 10SM CLR 08/05 A2989 RMK AO2 SLP129 T00760051 $
KECP 
20nm E 
190753Z AUTO 00000KT 7SM CLR 06/03 A2988 RMK AO2 SLP130 T00560033
K54J 
22nm N 
190835Z AUTO 33006KT 10SM CLR 06/04 A2992 RMK AO2 T00600042
KEGI 
23nm NW 
190756Z AUTO 30003KT 10SM CLR 05/04 A2990 RMK AO2 SLP126 T00470035 $
KHRT 
25nm W 
190756Z AUTO 35005KT 10SM CLR 05/M13 A2989 RMK AO2 SLP124 T00491130 $
KCEW 
29nm NW 
190753Z AUTO 00000KT 7SM CLR 03/02 A2992 RMK AO2 SLP131 T00330022
TAF
KVPS 
18nm W 
190200Z 1902/2008 32009KT 9999 FEW250 QNH2986INS BECMG 1908/1909 33006KT 9999 FEW080 QNH2990INS WND 28008KT AFT 1918 BECMG 2006/2007 32005KT 9999 SCT250 QNH2989INS TX20/1919Z TN06/1910Z
KECP 
20nm E 
190520Z 1906/2006 28005KT P6SM SCT250 FM191800 24007KT P6SM SCT250
NOTAMs
Click for the latest NOTAMs
NOTAMs are issued by the DoD/FAA and will open in a separate window not controlled by AirNav.

 

 
 

Would you like to see your business listed on this page?

 If your business provides an interesting product or service to pilots, flight crews, aircraft, or users of the Pennington Heliport, you should consider listing it here.  To start the listing process, click on the button below
 
Add a business
 

Other Pages about Pennington Heliport

Update a link
 
Copyright © AirNav, LLC. All rights reserved. Privacy Policy  Contact